Terminal Aerodrome Forecast
Issued by NWS Louisville, KY

Home | Current Version | Previous Version | Text Only | Print | Product List | Glossary On
Versions: 1 2 3 4 5 6 7 8 9 10 11 12 13
629
FTUS43 KLMK 211730
TAFLEX
TAF
KLEX 211730Z 2118/2218 04009KT P6SM BKN012
     FM211900 02009KT P6SM SCT012 BKN250
     FM220000 01008KT P6SM BKN100
     FM221400 04012KT P6SM SCT250=

USA.gov is the U.S. government's official web portal to all federal, state and local government web resources and services.